Time;durP1;ratioP1;P1;durP2;ratioP2;P2;SDS_P1;SDS_P2;PMS_P1;PMS_P2;Temp;Humidity;BMP_temperature;BMP_pressure;BME280_temperature;BME280_humidity;BME280_pressure;Samples;Min_cycle;Max_cycle;Signal;HPM_P1;HPM_P2
2023/02/18 00:00:56;;;;;;;;;10.50;10.50;;;;;13.03;72.91;101994.66;5057952;28;45367;-74
2023/02/18 00:03:23;;;;;;;;;13.00;13.00;;;;;13.04;73.16;101995.53;5058425;28;45438;-73
2023/02/18 00:05:48;;;;;;;;;23.00;22.50;;;;;13.02;72.78;101990.28;5058244;28;45395;-72
2023/02/18 00:08:13;;;;;;;;;22.75;22.75;;;;;13.01;73.05;101985.91;5057754;28;45331;-71
2023/02/18 00:10:42;;;;;;;;;15.75;15.75;;;;;13.02;73.04;101990.28;5058408;28;47993;-71
2023/02/18 00:13:07;;;;;;;;;11.25;11.25;;;;;13.01;72.58;101991.19;5058902;28;45203;-71
2023/02/18 00:15:37;;;;;;;;;17.25;17.25;;;;;12.98;72.65;101978.94;5058374;28;45321;-73
2023/02/18 00:18:03;;;;;;;;;23.25;23.25;;;;;13.00;72.78;101981.53;5058937;28;45483;-71
2023/02/18 00:20:28;;;;;;;;;22.75;22.75;;;;;12.97;72.71;101981.63;5059599;28;45344;-72
2023/02/18 00:22:53;;;;;;;;;12.25;12.25;;;;;12.97;72.51;101985.13;5058088;28;45318;-71
2023/02/18 00:25:19;;;;;;;;;24.25;24.25;;;;;12.96;72.65;101983.41;5039575;28;45585;-71
2023/02/18 00:27:44;;;;;;;;;15.75;15.75;;;;;12.95;72.17;101986.97;5057466;28;45482;-72
2023/02/18 00:30:10;;;;;;;;;13.50;13.50;;;;;12.95;72.11;101986.06;5057803;28;45264;-71
2023/02/18 00:32:35;;;;;;;;;16.75;15.00;;;;;12.94;72.01;101987.00;5057647;28;45250;-70
2023/02/18 00:35:01;;;;;;;;;17.25;16.50;;;;;12.93;72.28;101988.78;5058259;28;45358;-73
2023/02/18 00:37:26;;;;;;;;;15.75;15.75;;;;;12.95;72.35;101981.69;5038614;28;46214;-71
2023/02/18 00:39:51;;;;;;;;;13.75;13.00;;;;;12.95;72.21;101986.06;5056652;28;45320;-71
2023/02/18 00:42:17;;;;;;;;;12.50;11.75;;;;;12.94;72.07;101979.94;5057596;28;45381;-72
2023/02/18 00:44:42;;;;;;;;;11.00;11.00;;;;;12.91;72.07;101976.50;5057197;28;49452;-73
2023/02/18 00:47:08;;;;;;;;;13.00;13.00;;;;;12.88;72.34;101977.47;5056972;28;46046;-73
2023/02/18 00:49:33;;;;;;;;;10.00;9.00;;;;;12.89;72.31;101981.84;5056648;28;45350;-72
2023/02/18 00:51:59;;;;;;;;;14.25;14.25;;;;;12.90;72.17;101978.31;5057057;28;45357;-71
2023/02/18 00:54:24;;;;;;;;;12.00;12.00;;;;;12.88;72.18;101980.13;5056896;28;45607;-71
2023/02/18 00:56:49;;;;;;;;;12.25;12.25;;;;;12.88;72.37;101976.59;5056161;28;45401;-71
2023/02/18 00:59:15;;;;;;;;;12.75;12.75;;;;;12.88;72.04;101974.84;5056286;28;45414;-70
2023/02/18 01:01:41;;;;;;;;;10.50;10.50;;;;;12.86;72.14;101974.00;5038202;28;45300;-71
2023/02/18 01:04:06;;;;;;;;;10.75;10.75;;;;;12.87;72.34;101973.09;5056690;28;45490;-74
2023/02/18 01:06:31;;;;;;;;;9.00;9.00;;;;;12.83;72.43;101960.88;5040119;28;47280;-71
2023/02/18 01:08:57;;;;;;;;;12.75;12.75;;;;;12.90;72.57;101966.84;5056767;28;45384;-72
2023/02/18 01:11:22;;;;;;;;;14.00;14.00;;;;;12.88;72.53;101961.63;5056863;28;45339;-71
2023/02/18 01:13:48;;;;;;;;;9.25;9.25;;;;;12.86;72.53;101966.94;5057125;28;45516;-72
2023/02/18 01:16:13;;;;;;;;;9.75;9.75;;;;;12.85;72.66;101959.91;5056561;28;46173;-72
2023/02/18 01:18:39;;;;;;;;;8.00;8.00;;;;;12.83;72.84;101951.19;5056759;28;45380;-71
2023/02/18 01:21:07;;;;;;;;;11.00;11.00;;;;;12.87;72.77;101962.53;5056622;28;45412;-70
2023/02/18 01:23:33;;;;;;;;;12.00;12.00;;;;;12.85;72.78;101964.34;5057076;28;45655;-70
2023/02/18 01:25:58;;;;;;;;;11.00;11.00;;;;;12.67;73.35;101942.81;5057516;28;46189;-72
2023/02/18 01:28:24;;;;;;;;;11.25;11.25;;;;;12.83;73.16;101966.16;5058406;28;45158;-71
2023/02/18 01:30:51;;;;;;;;;11.75;11.75;;;;;12.80;73.41;101959.19;5057223;28;45379;-72
2023/02/18 01:33:17;;;;;;;;;11.00;11.00;;;;;12.79;73.51;101956.59;5057599;28;45478;-71
2023/02/18 01:35:42;;;;;;;;;11.50;10.25;;;;;12.83;73.14;101947.69;5057240;28;46158;-72
2023/02/18 01:38:08;;;;;;;;;12.25;12.25;;;;;12.76;73.71;101948.78;5056760;28;45355;-71
2023/02/18 01:40:34;;;;;;;;;18.00;18.00;;;;;12.82;73.69;101943.31;5057447;28;45445;-73
2023/02/18 01:43:00;;;;;;;;;15.00;13.00;;;;;12.71;73.68;101936.53;5040433;28;45363;-78
2023/02/18 01:45:34;;;;;;;;;12.00;12.00;;;;;12.82;73.46;101951.25;5058503;28;46169;-77
2023/02/18 01:48:03;;;;;;;;;12.25;12.25;;;;;12.76;73.64;101943.50;5058545;28;45271;-76
2023/02/18 01:50:29;;;;;;;;;10.50;10.00;;;;;12.79;73.49;101940.75;5058576;28;45445;-77
2023/02/18 01:52:54;;;;;;;;;11.50;11.00;;;;;12.78;73.49;101936.38;5061097;28;45341;-81
2023/02/18 01:55:20;;;;;;;;;11.00;11.00;;;;;12.79;73.10;101943.41;5058703;28;45344;-78
2023/02/18 01:57:47;;;;;;;;;9.00;9.00;;;;;12.77;73.42;101938.16;5058976;28;45331;-77
2023/02/18 02:00:20;;;;;;;;;12.25;12.25;;;;;12.75;72.97;101939.13;5057753;28;53727;-77
2023/02/18 02:02:47;;;;;;;;;12.75;12.75;;;;;12.74;72.99;101945.31;5058507;28;45312;-75
2023/02/18 02:05:17;;;;;;;;;10.75;10.75;;;;;12.51;72.61;101912.44;5058733;28;45501;-82
2023/02/18 02:07:44;;;;;;;;;8.75;8.75;;;;;12.63;72.78;101935.03;5041484;28;45300;-78
2023/02/18 02:10:12;;;;;;;;;9.50;9.00;;;;;12.60;72.90;101930.69;5058503;28;45452;-78
2023/02/18 02:13:06;;;;;;;;;8.50;8.50;;;;;12.59;72.67;101925.47;5058373;28;45443;-79
2023/02/18 02:15:46;;;;;;;;;6.00;6.00;;;;;12.57;73.12;101922.84;5060050;28;45411;-78
2023/02/18 02:18:15;;;;;;;;;9.50;9.50;;;;;12.57;73.00;101925.47;5064130;28;45193;-77
2023/02/18 02:21:00;;;;;;;;;9.75;9.75;;;;;12.53;72.64;101916.81;5065782;28;45370;-77
2023/02/18 02:23:43;;;;;;;;;9.25;9.25;;;;;12.52;72.41;101912.44;5060325;28;45503;-75
2023/02/18 02:26:30;;;;;;;;;9.00;9.00;;;;;12.48;72.02;101916.06;5062213;28;45362;-79
2023/02/18 02:29:14;;;;;;;;;9.75;9.75;;;;;12.45;72.10;101917.91;5058131;28;45403;-79
2023/02/18 02:31:56;;;;;;;;;9.00;9.00;;;;;12.44;72.30;101910.88;5057667;28;45341;-79
2023/02/18 02:34:43;;;;;;;;;10.25;10.25;;;;;12.41;72.17;101915.34;5058116;28;45534;-82
2023/02/18 02:37:33;;;;;;;;;9.00;9.00;;;;;12.42;71.98;101903.03;5057459;28;45770;-82
2023/02/18 02:40:37;;;;;;;;;8.25;8.25;;;;;12.30;71.79;101883.09;5065746;28;45431;-79
2023/02/18 02:43:25;;;;;;;;;7.00;7.00;;;;;12.40;72.18;101899.56;5047864;28;45518;-82
2023/02/18 02:45:58;;;;;;;;;7.75;7.75;;;;;12.33;71.92;101883.03;5059596;28;45518;-77
2023/02/18 02:48:46;;;;;;;;;8.50;8.50;;;;;12.38;71.89;101891.69;5060815;28;46109;-77
2023/02/18 02:51:27;;;;;;;;;9.00;9.00;;;;;12.37;71.70;101884.66;5073501;28;45783;-79
2023/02/18 02:53:52;;;;;;;;;9.25;9.25;;;;;12.34;71.63;101883.91;5076925;27;45464;-77
2023/02/18 02:56:21;;;;;;;;;9.00;9.00;;;;;12.35;71.38;101883.84;5077879;28;45813;-78
2023/02/18 02:58:58;;;;;;;;;9.25;9.25;;;;;12.27;71.88;101875.25;5077519;28;45559;-80
2023/02/18 03:02:09;;;;;;;;;9.50;9.50;;;;;12.36;71.44;101882.94;5082369;28;45261;-80
2023/02/18 03:04:37;;;;;;;;;8.50;8.50;;;;;12.36;71.27;101882.09;5075579;27;45558;-74
2023/02/18 03:07:36;;;;;;;;;10.00;10.00;;;;;12.38;71.67;101891.69;5059123;28;45502;-83
2023/02/18 03:10:26;;;;;;;;;8.25;8.25;;;;;12.41;71.39;101886.31;5060820;28;48814;-75
2023/02/18 03:13:22;;;;;;;;;9.00;9.00;;;;;12.42;71.36;101877.50;5080660;28;45366;-77
2023/02/18 03:16:14;;;;;;;;;12.00;12.00;;;;;12.44;71.32;101879.22;5057322;28;45275;-75
2023/02/18 03:18:47;;;;;;;;;7.25;7.25;;;;;12.42;70.96;101876.63;5076391;28;45512;-76
2023/02/18 03:21:22;;;;;;;;;9.00;9.00;;;;;12.41;70.83;101875.75;5078284;28;46258;-77
2023/02/18 03:24:02;;;;;;;;;10.25;10.25;;;;;12.40;70.88;101871.38;5062577;28;45612;-78
2023/02/18 03:26:31;;;;;;;;;7.50;7.50;;;;;12.35;70.47;101860.09;5077347;27;45378;-76
2023/02/18 03:29:01;;;;;;;;;7.75;7.75;;;;;12.37;70.54;101878.53;5100474;27;45444;-76
2023/02/18 03:31:29;;;;;;;;;8.00;8.00;;;;;12.35;70.68;101869.81;5099184;27;45385;-74
2023/02/18 03:34:01;;;;;;;;;7.75;7.75;;;;;12.33;70.63;101871.63;5100428;27;45357;-75
2023/02/18 03:36:28;;;;;;;;;8.00;8.00;;;;;12.31;70.70;101863.72;5099993;27;45543;-78
2023/02/18 03:39:00;;;;;;;;;10.25;10.25;;;;;12.26;70.94;101858.59;5099313;27;45369;-77
2023/02/18 03:41:26;;;;;;;;;10.00;10.00;;;;;12.25;70.71;101854.22;5099280;27;46202;-78
2023/02/18 03:43:55;;;;;;;;;9.75;9.75;;;;;12.31;70.00;101861.09;5099739;27;45243;-78
2023/02/18 03:46:20;;;;;;;;;8.00;8.00;;;;;12.17;69.41;101850.03;5100077;27;45451;-78
2023/02/18 03:48:45;;;;;;;;;9.00;9.00;;;;;12.25;69.66;101867.41;5100676;27;45501;-77
2023/02/18 03:51:12;;;;;;;;;6.00;5.00;;;;;12.24;69.43;101867.44;5100387;27;47111;-78
2023/02/18 03:53:38;;;;;;;;;9.25;9.25;;;;;12.25;69.64;101867.41;5100561;27;45411;-76
2023/02/18 03:56:03;;;;;;;;;7.25;7.25;;;;;12.27;69.41;101873.50;5100868;27;45320;-78
2023/02/18 03:58:29;;;;;;;;;7.25;7.25;;;;;12.24;68.99;101870.06;5101560;27;45304;-77
2023/02/18 04:00:54;;;;;;;;;8.50;8.50;;;;;12.22;69.09;101869.25;5082131;27;46001;-77
2023/02/18 04:03:19;;;;;;;;;6.75;6.75;;;;;12.18;69.08;101867.59;5081137;27;56053;-77
2023/02/18 04:05:45;;;;;;;;;9.00;9.00;;;;;12.21;68.77;101868.41;5100493;27;45276;-79
2023/02/18 04:08:10;;;;;;;;;8.50;8.50;;;;;12.12;68.65;101853.66;5103658;27;45213;-78
2023/02/18 04:10:35;;;;;;;;;7.00;7.00;;;;;12.17;68.86;101863.22;5106454;27;46602;-78
2023/02/18 04:13:01;;;;;;;;;9.00;9.00;;;;;12.08;68.74;101854.66;5102133;27;45360;-77
2023/02/18 04:15:26;;;;;;;;;8.75;8.75;;;;;12.06;68.14;101853.81;5101384;27;45659;-78
2023/02/18 04:17:52;;;;;;;;;7.50;7.50;;;;;12.16;68.61;101870.25;5101246;27;45244;-77
2023/02/18 04:20:17;;;;;;;;;7.75;7.25;;;;;12.02;68.54;101841.63;5100399;27;45346;-77
2023/02/18 04:22:43;;;;;;;;;7.00;7.00;;;;;12.13;68.08;101865.94;5082895;27;45358;-77
2023/02/18 04:25:08;;;;;;;;;5.00;5.00;;;;;12.12;68.34;101853.66;5101916;27;45240;-78
2023/02/18 04:27:34;;;;;;;;;10.25;10.25;;;;;12.19;68.36;101864.91;5081846;27;45519;-78
2023/02/18 04:29:59;;;;;;;;;8.25;8.25;;;;;12.20;68.13;101866.66;5099650;27;48670;-77
2023/02/18 04:32:24;;;;;;;;;8.75;8.75;;;;;12.16;68.31;101866.78;5080571;27;45268;-79
2023/02/18 04:34:50;;;;;;;;;9.25;9.25;;;;;12.09;68.01;101845.84;5080575;27;52462;-77
2023/02/18 04:37:15;;;;;;;;;8.25;8.25;;;;;12.21;67.86;101867.53;5099804;27;45617;-77
2023/02/18 04:39:40;;;;;;;;;7.50;7.50;;;;;12.21;67.86;101873.69;5080899;27;46966;-78
2023/02/18 04:42:07;;;;;;;;;9.00;9.00;;;;;12.24;67.94;101868.31;5098728;27;45446;-77
2023/02/18 04:44:34;;;;;;;;;9.25;9.00;;;;;12.23;67.42;101868.34;5100010;27;45338;-77
2023/02/18 04:47:00;;;;;;;;;10.75;10.75;;;;;12.21;67.46;101862.25;5101123;27;45238;-78
2023/02/18 04:49:26;;;;;;;;;7.00;7.00;;;;;12.15;67.79;101846.56;5100160;27;45222;-75
2023/02/18 04:51:51;;;;;;;;;5.00;5.00;;;;;12.19;67.57;101862.25;5100432;27;45252;-77
2023/02/18 04:54:16;;;;;;;;;8.00;8.00;;;;;12.16;67.42;101856.22;5103151;27;45402;-76
2023/02/18 04:56:42;;;;;;;;;8.00;8.00;;;;;12.02;67.27;101835.47;5101257;27;45390;-78
2023/02/18 04:59:07;;;;;;;;;7.00;7.00;;;;;12.08;67.28;101852.00;5100501;27;55807;-77
2023/02/18 05:01:32;;;;;;;;;6.25;6.25;;;;;12.06;67.38;101851.19;5099779;27;49342;-76
2023/02/18 05:03:57;;;;;;;;;8.00;8.00;;;;;11.98;67.57;101851.34;5099489;27;45206;-77
2023/02/18 05:06:23;;;;;;;;;6.25;6.25;;;;;11.94;67.15;101849.69;5099872;27;45500;-78
2023/02/18 05:08:48;;;;;;;;;8.75;8.75;;;;;11.99;67.25;101860.13;5099285;27;46312;-77
2023/02/18 05:11:13;;;;;;;;;7.00;7.00;;;;;11.98;67.36;101855.75;5100233;27;45473;-79
2023/02/18 05:13:39;;;;;;;;;9.00;9.00;;;;;11.99;66.95;101852.22;5099308;27;45249;-77
2023/02/18 05:16:04;;;;;;;;;6.00;6.00;;;;;11.97;66.96;101854.88;5099518;27;45319;-77
2023/02/18 05:18:29;;;;;;;;;8.00;8.00;;;;;11.93;66.82;101858.50;5099326;27;46036;-77
2023/02/18 05:20:55;;;;;;;;;7.50;7.50;;;;;11.92;66.88;101863.84;5099119;27;45379;-77
2023/02/18 05:23:20;;;;;;;;;6.50;6.50;;;;;11.80;66.85;101860.59;5099040;27;45415;-78
2023/02/18 05:25:46;;;;;;;;;5.75;5.75;;;;;11.83;67.11;101865.81;5098970;27;45837;-77
2023/02/18 05:28:11;;;;;;;;;7.00;7.00;;;;;11.83;67.13;101860.53;5098639;27;46426;-76
2023/02/18 05:30:37;;;;;;;;;7.00;7.00;;;;;11.62;66.49;101832.91;5105361;27;45346;-78
2023/02/18 05:33:03;;;;;;;;;6.00;6.00;;;;;11.71;66.88;101847.66;5106650;27;45453;-80
2023/02/18 05:35:28;;;;;;;;;7.00;7.00;;;;;11.81;66.85;101869.38;5103994;27;45364;-81
2023/02/18 05:37:53;;;;;;;;;5.25;5.25;;;;;11.83;66.87;101864.91;5105764;27;45316;-78
2023/02/18 05:40:18;;;;;;;;;7.25;7.25;;;;;11.82;66.87;101866.69;5097729;27;44865;-81
2023/02/18 05:42:44;;;;;;;;;5.25;5.25;;;;;11.79;66.73;101853.59;5101795;27;45486;-80
2023/02/18 05:45:09;;;;;;;;;9.50;9.00;;;;;11.82;66.68;101866.69;5103869;27;45291;-81
2023/02/18 05:47:34;;;;;;;;;7.50;7.50;;;;;11.68;66.42;101840.66;5104327;27;45362;-80
2023/02/18 05:50:00;;;;;;;;;7.00;7.00;;;;;11.66;66.33;101836.31;5102551;27;51661;-80
2023/02/18 05:52:25;;;;;;;;;8.00;8.00;;;;;11.81;66.39;101858.81;5082685;27;45368;-82
2023/02/18 05:54:50;;;;;;;;;6.00;6.00;;;;;11.72;66.67;101846.75;5100539;27;45303;-78
2023/02/18 05:57:16;;;;;;;;;7.00;7.00;;;;;11.81;66.05;101866.72;5100819;27;45336;-81
2023/02/18 05:59:41;;;;;;;;;7.00;7.00;;;;;11.58;66.33;101836.53;5103428;27;45238;-79
2023/02/18 06:02:06;;;;;;;;;7.50;7.50;;;;;11.67;66.23;101838.94;5100821;27;45374;-80
2023/02/18 06:04:32;;;;;;;;;7.75;7.75;;;;;11.75;66.73;101857.22;5102485;27;45493;-78
2023/02/18 06:06:57;;;;;;;;;7.00;7.00;;;;;11.64;66.48;101839.00;5106565;27;45563;-80
2023/02/18 06:09:23;;;;;;;;;8.00;8.00;;;;;11.69;66.22;101838.91;5110425;27;45411;-79
2023/02/18 06:11:49;;;;;;;;;6.50;6.50;;;;;11.76;66.45;101851.03;5109239;27;45383;-80
2023/02/18 06:14:14;;;;;;;;;7.50;7.50;;;;;11.76;66.24;101850.16;5104500;27;45597;-82
2023/02/18 06:16:39;;;;;;;;;5.25;5.25;;;;;11.68;65.89;101845.94;5105715;27;46506;-77
2023/02/18 06:19:05;;;;;;;;;6.75;6.75;;;;;11.69;66.02;101860.00;5099975;27;45400;-80
2023/02/18 06:21:30;;;;;;;;;4.00;4.00;;;;;11.59;66.15;101843.53;5081358;27;45260;-77
2023/02/18 06:23:56;;;;;;;;;6.25;6.25;;;;;11.66;66.05;101849.50;5100905;27;45528;-76
2023/02/18 06:26:21;;;;;;;;;7.00;7.00;;;;;11.68;66.18;101858.28;5099779;27;45404;-79
2023/02/18 06:28:46;;;;;;;;;7.00;7.00;;;;;11.67;66.49;101849.47;5099849;27;45302;-80
2023/02/18 06:31:12;;;;;;;;;7.00;7.00;;;;;11.70;66.27;101848.56;5099528;27;45326;-79
2023/02/18 06:33:37;;;;;;;;;4.25;4.25;;;;;11.67;66.42;101840.72;5099705;27;45363;-77
2023/02/18 06:36:06;;;;;;;;;7.00;7.00;;;;;11.72;65.96;101844.13;5100275;27;48262;-79
2023/02/18 06:38:32;;;;;;;;;7.50;7.50;;;;;11.71;65.84;101854.69;5099617;27;45233;-75
2023/02/18 06:40:58;;;;;;;;;7.75;7.75;;;;;11.65;66.07;101837.22;5096607;27;45226;-74
2023/02/18 06:43:23;;;;;;;;;7.50;7.50;;;;;11.59;66.22;101821.56;5097541;27;45581;-76
2023/02/18 06:45:48;;;;;;;;;6.50;6.50;;;;;11.65;66.57;101848.66;5078001;27;47060;-76
2023/02/18 06:48:15;;;;;;;;;8.50;8.50;;;;;11.64;66.54;101844.28;5097903;27;45338;-76
2023/02/18 06:50:41;;;;;;;;;9.75;9.75;;;;;11.53;66.56;101831.34;5097443;27;45469;-75
2023/02/18 06:53:06;;;;;;;;;7.50;7.50;;;;;11.55;66.88;101832.19;5090376;27;45465;-74
2023/02/18 06:55:32;;;;;;;;;10.00;10.00;;;;;11.57;66.45;101849.72;5060821;28;47137;-77
2023/02/18 06:57:57;;;;;;;;;6.25;6.25;;;;;11.59;66.26;101847.94;5082811;27;45403;-79
2023/02/18 07:00:23;;;;;;;;;8.00;8.00;;;;;11.59;66.30;101845.28;5081560;27;45418;-77
2023/02/18 07:02:48;;;;;;;;;11.00;11.00;;;;;11.59;66.76;101850.56;5063006;28;45530;-77
2023/02/18 07:05:14;;;;;;;;;9.25;9.25;;;;;11.55;66.84;101842.72;5079914;27;58984;-77
2023/02/18 07:07:39;;;;;;;;;6.25;6.25;;;;;11.50;66.51;101835.84;5080169;27;45397;-75
2023/02/18 07:10:05;;;;;;;;;8.50;8.50;;;;;11.58;66.50;101843.56;5079534;28;45370;-77
2023/02/18 07:12:31;;;;;;;;;9.25;9.25;;;;;11.63;66.38;101846.94;5080207;28;45685;-77
2023/02/18 07:14:56;;;;;;;;;8.75;8.75;;;;;11.64;66.47;101851.31;5061148;28;46210;-77
2023/02/18 07:17:22;;;;;;;;;9.75;9.75;;;;;11.63;66.54;101852.22;5080004;27;57707;-76
2023/02/18 07:20:03;;;;;;;;;7.00;7.00;;;;;11.50;66.29;101831.44;5080197;28;45659;-75
2023/02/18 07:22:28;;;;;;;;;8.25;8.25;;;;;11.52;66.67;101836.69;5080520;27;45321;-76
2023/02/18 07:24:54;;;;;;;;;7.00;7.00;;;;;11.61;66.25;101843.47;5083035;28;46131;-75
2023/02/18 07:27:20;;;;;;;;;7.00;7.00;;;;;11.69;66.50;101855.59;5079363;28;45354;-76
2023/02/18 07:29:45;;;;;;;;;7.75;7.75;;;;;11.71;66.24;101854.69;5060333;28;45434;-75
2023/02/18 07:32:13;;;;;;;;;6.75;6.00;;;;;11.59;65.91;101840.91;5078555;28;46413;-76
2023/02/18 07:34:38;;;;;;;;;5.25;5.25;;;;;11.63;65.87;101844.31;5060256;28;48283;-76
2023/02/18 07:37:08;;;;;;;;;7.50;6.25;;;;;11.67;65.59;101853.91;5078803;27;45400;-76
2023/02/18 07:39:42;;;;;;;;;7.00;7.00;;;;;11.64;65.43;101853.94;5078792;28;45454;-75
2023/02/18 07:42:09;;;;;;;;;6.50;6.50;;;;;11.65;65.37;101860.94;5078511;28;45293;-76
2023/02/18 07:44:35;;;;;;;;;5.00;5.00;;;;;11.67;65.30;101856.53;5078050;27;46491;-76
2023/02/18 07:47:01;;;;;;;;;5.25;5.25;;;;;11.69;65.67;101860.84;5078107;27;45368;-78
2023/02/18 07:49:27;;;;;;;;;5.00;5.00;;;;;11.71;65.35;101866.09;5078082;27;45282;-74
2023/02/18 07:51:52;;;;;;;;;4.75;4.75;;;;;11.71;65.02;101862.59;5078803;28;45246;-74
2023/02/18 07:54:18;;;;;;;;;5.00;5.00;;;;;11.73;65.18;101864.28;5077877;27;50606;-77
2023/02/18 07:56:44;;;;;;;;;7.25;7.25;;;;;11.70;64.81;101853.84;5078251;28;45332;-75
2023/02/18 07:59:10;;;;;;;;;4.50;4.50;;;;;11.77;64.44;101860.69;5078719;28;45221;-76
2023/02/18 08:01:36;;;;;;;;;8.00;7.00;;;;;11.79;64.88;101855.34;5078908;28;45623;-73
2023/02/18 08:04:01;;;;;;;;;3.25;3.25;;;;;11.74;64.57;101846.69;5060141;27;48146;-72
2023/02/18 08:06:32;;;;;;;;;4.00;4.00;;;;;11.76;64.66;101856.31;5080435;28;45433;-76
2023/02/18 08:08:57;;;;;;;;;4.00;4.00;;;;;11.73;64.52;101850.22;5059979;28;45382;-76
2023/02/18 08:11:23;;;;;;;;;3.75;3.75;;;;;11.78;64.04;101859.78;5078248;28;45315;-76
2023/02/18 08:13:48;;;;;;;;;3.00;3.00;;;;;11.76;64.04;101858.06;5077736;28;45949;-75
2023/02/18 08:16:16;;;;;;;;;2.00;2.00;;;;;11.72;64.42;101861.69;5079248;27;45224;-75
2023/02/18 08:18:42;;;;;;;;;4.25;4.25;;;;;11.80;64.09;101870.25;5078429;28;45421;-76
2023/02/18 08:21:08;;;;;;;;;2.25;2.25;;;;;11.79;64.05;101872.06;5085628;28;45280;-72
2023/02/18 08:23:33;;;;;;;;;9.75;9.75;;;;;11.80;63.94;101875.53;5079645;28;45382;-73
2023/02/18 08:25:58;;;;;;;;;4.75;4.75;;;;;11.79;63.86;101861.50;5077436;28;45291;-75
2023/02/18 08:28:24;;;;;;;;;3.00;3.00;;;;;11.80;63.73;101876.41;5042678;28;45451;-74
2023/02/18 08:30:51;;;;;;;;;2.00;2.00;;;;;11.84;63.16;101885.97;5077756;28;45486;-74
2023/02/18 08:33:18;;;;;;;;;1.50;1.50;;;;;11.80;64.18;101884.31;5077610;28;45306;-72
2023/02/18 08:35:44;;;;;;;;;2.50;2.50;;;;;11.82;63.89;101886.91;5077236;28;45945;-72
2023/02/18 08:38:10;;;;;;;;;2.75;2.75;;;;;11.80;63.99;101879.06;5077154;28;45404;-73
2023/02/18 08:40:35;;;;;;;;;2.75;2.75;;;;;11.88;63.44;101885.91;5077110;27;45368;-72
2023/02/18 08:43:01;;;;;;;;;1.25;1.25;;;;;11.90;63.55;101882.31;5077203;27;46254;-73
2023/02/18 08:45:26;;;;;;;;;5.75;5.75;;;;;11.90;64.09;101886.75;5077487;28;45429;-73
2023/02/18 08:47:52;;;;;;;;;3.00;3.00;;;;;11.92;63.50;101882.28;5077545;27;45549;-74
2023/02/18 08:50:19;;;;;;;;;2.25;2.25;;;;;11.99;63.61;101889.16;5077734;28;45939;-73
2023/02/18 08:52:45;;;;;;;;;2.00;2.00;;;;;11.97;63.13;101885.69;5059840;28;46290;-73
2023/02/18 08:55:10;;;;;;;;;3.00;3.00;;;;;12.04;63.03;101889.03;5077716;27;45245;-74
2023/02/18 08:57:35;;;;;;;;;1.00;1.00;;;;;12.05;63.17;101889.03;5060407;28;45259;-74
2023/02/18 09:00:01;;;;;;;;;2.00;2.00;;;;;11.97;62.84;101870.72;5078247;27;45367;-74
2023/02/18 09:02:28;;;;;;;;;3.00;3.00;;;;;12.06;62.93;101893.38;5077594;27;45245;-74
2023/02/18 09:04:53;;;;;;;;;1.50;1.50;;;;;12.05;63.08;101882.88;5077849;28;45339;-74
2023/02/18 09:07:18;;;;;;;;;1.25;1.25;;;;;11.99;62.48;101876.81;5077159;27;45567;-72
2023/02/18 09:09:44;;;;;;;;;3.00;3.00;;;;;12.05;63.10;101888.13;5077305;28;45614;-75
2023/02/18 09:12:09;;;;;;;;;1.00;1.00;;;;;12.06;63.12;101888.13;5076851;28;45251;-73
2023/02/18 09:14:35;;;;;;;;;1.25;1.25;;;;;12.07;62.75;101895.13;5076964;28;45399;-74
2023/02/18 09:17:00;;;;;;;;;2.00;2.00;;;;;12.06;63.07;101880.19;5076851;28;45378;-75
2023/02/18 09:19:26;;;;;;;;;1.00;1.00;;;;;12.11;62.89;101898.53;5076428;28;45454;-73
2023/02/18 09:21:56;;;;;;;;;2.00;2.00;;;;;12.10;62.74;101884.50;5076620;28;45432;-73
2023/02/18 09:24:23;;;;;;;;;2.00;2.00;;;;;12.13;62.91;101902.00;5076567;28;45346;-76
2023/02/18 09:26:49;;;;;;;;;1.00;1.00;;;;;12.08;62.83;101888.94;5076827;28;45295;-72
2023/02/18 09:29:15;;;;;;;;;1.25;1.25;;;;;12.12;63.06;101902.91;5076914;28;45270;-73
2023/02/18 09:31:40;;;;;;;;;2.00;2.00;;;;;12.15;62.55;101901.97;5076713;27;46260;-73
2023/02/18 09:34:06;;;;;;;;;2.00;2.00;;;;;12.17;62.46;101908.06;5076525;28;45268;-74
2023/02/18 09:36:32;;;;;;;;;2.00;2.00;;;;;12.13;62.64;101896.72;5079736;27;45476;-72
2023/02/18 09:38:58;;;;;;;;;2.75;2.75;;;;;12.17;62.44;101902.78;5083037;28;45386;-73
2023/02/18 09:41:35;;;;;;;;;2.00;2.00;;;;;12.20;62.59;101900.97;5080830;27;46283;-73
2023/02/18 09:44:08;;;;;;;;;8.50;8.50;;;;;12.18;62.42;101892.19;5077280;27;45311;-74
2023/02/18 09:46:39;;;;;;;;;8.75;8.75;;;;;12.25;62.69;101906.09;5076981;27;45442;-73
2023/02/18 09:49:16;;;;;;;;;3.00;3.00;;;;;12.24;62.52;101888.53;5076693;27;45312;-74
2023/02/18 09:51:42;;;;;;;;;4.00;4.00;;;;;12.37;62.74;101899.66;5076252;28;45512;-74
2023/02/18 09:54:15;;;;;;;;;3.00;3.00;;;;;12.39;62.12;101898.69;5057970;28;45433;-75
2023/02/18 09:56:42;;;;;;;;;3.00;3.00;;;;;12.38;62.00;101910.16;5058397;28;45424;-76
2023/02/18 09:59:15;;;;;;;;;2.00;2.00;;;;;12.38;62.21;101899.59;5076740;28;45417;-73
2023/02/18 10:01:42;;;;;;;;;1.75;1.75;;;;;12.38;62.16;101904.88;5077119;27;45410;-73
2023/02/18 10:04:24;;;;;;;;;4.00;4.00;;;;;12.39;62.14;101909.25;5078543;28;45407;-73
2023/02/18 10:06:53;;;;;;;;;3.00;3.00;;;;;12.39;62.04;101917.16;5081583;28;45391;-74
2023/02/18 10:09:30;;;;;;;;;3.00;3.00;;;;;12.40;62.02;101918.88;5082476;28;45376;-72
2023/02/18 10:12:17;;;;;;;;;1.00;1.00;;;;;12.40;62.00;101925.94;5076916;27;45391;-75
2023/02/18 10:14:48;;;;;;;;;1.00;1.00;;;;;12.39;62.27;101914.50;5076783;28;45359;-70
2023/02/18 10:17:16;;;;;;;;;2.00;2.00;;;;;12.46;62.14;101920.50;5060093;28;45354;-79
2023/02/18 10:19:44;;;;;;;;;2.00;2.00;;;;;12.47;61.85;101919.59;5059491;28;45828;-72
2023/02/18 10:22:12;;;;;;;;;2.00;2.00;;;;;12.33;61.83;101887.44;5076398;27;45461;-71
2023/02/18 10:24:42;;;;;;;;;2.00;2.00;;;;;12.54;61.75;101918.53;5077811;28;45336;-71
2023/02/18 10:27:13;;;;;;;;;2.25;2.25;;;;;12.57;61.90;101917.56;5077805;27;45366;-72
2023/02/18 10:29:38;;;;;;;;;4.50;4.50;;;;;12.59;61.59;101923.66;5076770;28;45433;-75
2023/02/18 10:32:18;;;;;;;;;2.25;2.25;;;;;12.52;61.47;101911.53;5076695;27;47466;-77
2023/02/18 10:35:01;;;;;;;;;4.00;4.00;;;;;12.58;61.62;101921.94;5060285;28;45334;-75
2023/02/18 10:37:46;;;;;;;;;1.00;1.00;;;;;12.54;61.60;101918.53;5088107;27;45491;-76
2023/02/18 10:40:24;;;;;;;;;3.50;3.50;;;;;12.55;61.73;101922.91;5079013;27;45486;-71
2023/02/18 10:43:02;;;;;;;;;2.00;2.00;;;;;12.57;61.42;101921.09;5096015;27;45296;-72
2023/02/18 10:45:37;;;;;;;;;2.00;2.00;;;;;12.57;61.40;101921.09;5066351;28;45493;-72
2023/02/18 10:48:41;;;;;;;;;2.00;2.00;;;;;12.55;61.42;101924.66;5057990;28;45414;-70
2023/02/18 10:51:30;;;;;;;;;3.00;3.00;;;;;12.52;61.70;101919.47;5035109;27;45298;-72
2023/02/18 10:53:56;;;;;;;;;2.00;2.00;;;;;12.57;61.34;101920.22;5075450;28;46294;-70
2023/02/18 10:56:45;;;;;;;;;2.00;2.00;;;;;12.58;61.41;101919.28;5075386;27;45465;-71
2023/02/18 10:59:24;;;;;;;;;2.00;2.00;;;;;12.58;61.49;101927.22;5097790;27;45371;-73
2023/02/18 11:02:02;;;;;;;;;1.75;1.75;;;;;12.55;61.48;101925.53;5092631;27;45451;-74
2023/02/18 11:04:38;;;;;;;;;2.50;2.00;;;;;12.51;61.41;101923.91;5058141;28;45806;-73
2023/02/18 11:07:11;;;;;;;;;1.25;1.25;;;;;12.53;61.47;101929.13;5076591;28;45236;-74
2023/02/18 11:09:57;;;;;;;;;3.25;3.25;;;;;12.52;61.54;101920.34;5076445;28;45373;-76
2023/02/18 11:12:27;;;;;;;;;4.00;4.00;;;;;12.50;61.13;101919.53;5076807;27;45284;-73
2023/02/18 11:15:02;;;;;;;;;5.00;5.00;;;;;12.49;61.49;101925.72;5075858;28;45360;-72
2023/02/18 11:17:31;;;;;;;;;2.25;2.25;;;;;12.51;61.64;101923.00;5076835;27;45561;-74
2023/02/18 11:20:00;;;;;;;;;3.75;3.75;;;;;12.57;61.59;101922.84;5056526;27;45292;-71
2023/02/18 11:22:38;;;;;;;;;2.00;2.00;;;;;12.65;61.20;101922.66;5074290;28;45445;-70
2023/02/18 11:25:22;;;;;;;;;2.50;2.50;;;;;12.69;61.37;101917.22;5075425;28;45346;-70
2023/02/18 11:27:53;;;;;;;;;7.25;5.75;;;;;12.75;61.51;101925.91;5075419;27;45488;-73
2023/02/18 11:30:24;;;;;;;;;3.50;3.50;;;;;12.77;60.95;101919.66;5075953;27;45226;-71